Time;durP1;ratioP1;P1;durP2;ratioP2;P2;SDS_P1;SDS_P2;PMS_P1;PMS_P2;Temp;Humidity;BMP_temperature;BMP_pressure;BME280_temperature;BME280_humidity;BME280_pressure;Samples;Min_cycle;Max_cycle;Signal;HPM_P1;HPM_P2
2022/05/30 00:00:42;;;;;;;13.07;5.80;;;13.80;99.90;;;;;;6203174;23;20088;-94
2022/05/30 00:03:08;;;;;;;11.10;5.82;;;13.70;99.90;;;;;;6178641;23;20004;-91
2022/05/30 00:05:51;;;;;;;15.45;7.18;;;14.10;99.90;;;;;;6179138;23;20009;-92
2022/05/30 00:08:32;;;;;;;11.57;6.28;;;13.10;99.90;;;;;;6194940;23;20025;-92
2022/05/30 00:11:27;;;;;;;10.25;5.18;;;13.70;99.90;;;;;;6185964;23;20060;-93
2022/05/30 00:14:12;;;;;;;17.92;7.15;;;13.50;99.90;;;;;;6199095;23;19996;-92
2022/05/30 00:16:38;;;;;;;13.48;6.47;;;13.30;99.90;;;;;;6178490;23;20070;-89
2022/05/30 00:19:03;;;;;;;11.90;5.32;;;13.40;99.90;;;;;;6179877;23;20000;-90
2022/05/30 00:21:30;;;;;;;13.60;6.63;;;13.40;99.90;;;;;;6207186;23;20012;-90
2022/05/30 00:23:58;;;;;;;14.15;7.45;;;13.40;99.90;;;;;;6180657;23;20000;-90
2022/05/30 00:26:43;;;;;;;13.85;6.80;;;11.90;99.90;;;;;;6143507;23;20137;-90
2022/05/30 00:29:27;;;;;;;11.75;6.20;;;13.30;99.90;;;;;;6115431;23;20013;-90
2022/05/30 00:32:09;;;;;;;14.13;6.88;;;13.30;99.90;;;;;;6118721;23;20010;-91
2022/05/30 00:34:41;;;;;;;13.98;6.63;;;13.40;99.90;;;;;;6114467;23;20224;-91
2022/05/30 00:37:13;;;;;;;13.27;6.18;;;14.10;99.90;;;;;;6114860;23;20010;-91
2022/05/30 00:39:47;;;;;;;15.52;6.93;;;13.40;99.90;;;;;;6114927;23;20005;-92
2022/05/30 00:42:17;;;;;;;16.08;6.32;;;13.40;99.90;;;;;;6115761;23;20009;-90
2022/05/30 00:44:46;;;;;;;12.73;5.88;;;13.50;99.90;;;;;;6115124;23;20021;-91
2022/05/30 00:47:25;;;;;;;14.43;7.72;;;12.50;99.90;;;;;;6115083;23;20507;-92
2022/05/30 00:49:51;;;;;;;22.92;10.63;;;13.60;99.90;;;;;;6110555;23;20006;-89
2022/05/30 00:52:57;;;;;;;28.05;12.90;;;13.80;99.90;;;;;;6115279;23;20017;-90
2022/05/30 00:55:43;;;;;;;22.08;11.85;;;12.90;99.90;;;;;;6178095;23;20213;-90
2022/05/30 00:58:13;;;;;;;21.52;11.88;;;13.70;99.90;;;;;;6208862;23;20249;-90
2022/05/30 01:00:46;;;;;;;19.17;10.70;;;13.80;99.90;;;;;;6206979;23;20011;-90
2022/05/30 01:12:44;;;;;;;17.38;7.60;;;15.00;99.90;;;;;;6234539;23;20031;-91
2022/05/30 01:16:19;;;;;;;14.90;7.70;;;14.70;99.90;;;;;;6210718;23;20015;-93
2022/05/30 01:19:06;;;;;;;;;;;14.90;99.90;;;;;;6212443;23;20000;-91
2022/05/30 01:21:59;;;;;;;13.85;5.78;;;13.80;99.90;;;;;;6210922;23;19904;-90
2022/05/30 01:24:53;;;;;;;14.38;6.07;;;13.20;99.90;;;;;;6209929;23;20169;-90
2022/05/30 01:31:04;;;;;;;12.07;5.53;;;13.70;99.90;;;;;;6235350;23;20038;-92
2022/05/30 01:33:52;;;;;;;9.55;5.07;;;13.00;99.90;;;;;;6234015;23;19996;-91
2022/05/30 01:36:46;;;;;;;10.82;5.60;;;15.40;99.90;;;;;;6208452;23;20109;-91
2022/05/30 01:39:21;;;;;;;12.80;6.93;;;11.40;99.90;;;;;;6216385;23;20047;-91
2022/05/30 01:41:47;;;;;;;13.35;6.95;;;14.10;99.90;;;;;;6245374;23;20223;-89
2022/05/30 01:44:25;;;;;;;11.38;6.28;;;13.40;99.90;;;;;;6219441;23;20419;-91
2022/05/30 01:46:51;;;;;;;14.05;5.82;;;13.40;99.90;;;;;;6213664;23;20010;-89
2022/05/30 02:18:07;;;;;;;10.27;5.18;;;13.50;99.90;;;;;;6231689;23;20058;-90
2022/05/30 02:48:19;;;;;;;9.10;4.50;;;14.40;99.90;;;;;;6136058;23;20179;-88
2022/05/30 02:50:53;;;;;;;11.57;5.43;;;14.40;99.90;;;;;;6135930;23;20358;-85
2022/05/30 02:53:19;;;;;;;10.38;4.40;;;14.70;99.90;;;;;;6111571;23;20016;-87
2022/05/30 02:55:45;;;;;;;10.05;4.82;;;15.70;99.90;;;;;;6135385;23;20001;-92
2022/05/30 02:58:11;;;;;;;8.93;4.15;;;16.00;99.90;;;;;;6136507;23;20001;-90
2022/05/30 03:00:36;;;;;;;8.18;3.95;;;15.90;99.90;;;;;;6137461;23;20032;-90
2022/05/30 03:03:02;;;;;;;10.93;4.57;;;15.90;99.90;;;;;;6165784;23;20005;-91
2022/05/30 03:05:31;;;;;;;10.40;5.20;;;16.40;99.90;;;;;;6166168;23;20001;-90
2022/05/30 03:14:35;;;;;;;12.93;4.72;;;14.60;99.90;;;;;;6166720;23;20136;-91
2022/05/30 03:17:35;;;;;;;9.88;4.93;;;15.30;99.90;;;;;;6166198;23;20322;-92
2022/05/30 03:23:15;;;;;;;10.85;5.40;;;15.70;99.90;;;;;;6191972;22;20071;-93
2022/05/30 03:25:53;;;;;;;10.23;5.10;;;15.00;99.90;;;;;;6172525;23;20465;-88
2022/05/30 03:28:23;;;;;;;7.50;4.28;;;14.90;99.90;;;;;;6174207;23;20020;-88
2022/05/30 03:33:48;;;;;;;11.48;4.90;;;16.20;99.90;;;;;;6201451;22;20070;-92
2022/05/30 03:37:13;;;;;;;10.30;5.22;;;16.80;99.90;;;;;;6179507;23;20084;-92
2022/05/30 03:40:11;;;;;;;14.07;5.78;;;16.80;99.90;;;;;;6213821;23;20498;-91
2022/05/30 03:42:54;;;;;;;10.77;5.03;;;17.70;99.90;;;;;;6189041;23;20008;-91
2022/05/30 03:45:30;;;;;;;11.73;5.32;;;16.80;99.90;;;;;;6191593;22;20023;-91
2022/05/30 03:48:02;;;;;;;13.18;6.13;;;17.20;99.90;;;;;;6201174;23;20051;-90
2022/05/30 03:55:57;;;;;;;13.35;5.63;;;17.60;98.00;;;;;;6221625;22;20218;-85
2022/05/30 03:58:32;;;;;;;10.32;4.60;;;17.40;98.70;;;;;;6199286;23;20005;-91
2022/05/30 04:01:12;;;;;;;9.75;4.93;;;17.60;98.30;;;;;;6143692;23;20009;-92
2022/05/30 04:03:39;;;;;;;9.57;5.18;;;14.70;97.10;;;;;;6144877;23;20031;-89
2022/05/30 04:06:05;;;;;;;11.57;5.25;;;17.10;99.40;;;;;;6144535;23;20168;-85
2022/05/30 04:08:34;;;;;;;8.88;4.30;;;16.40;98.00;;;;;;6143961;23;20226;-90
2022/05/30 04:11:12;;;;;;;9.40;4.28;;;17.20;98.20;;;;;;6170831;23;20021;-93
2022/05/30 04:13:53;;;;;;;9.90;4.93;;;18.10;98.60;;;;;;6144078;23;20009;-88
2022/05/30 04:16:33;;;;;;;10.60;4.30;;;17.60;98.20;;;;;;6144222;23;20089;-91
2022/05/30 04:19:06;;;;;;;11.10;4.15;;;18.20;96.70;;;;;;6143356;22;20014;-90
2022/05/30 04:21:31;;;;;;;10.88;5.20;;;17.10;96.90;;;;;;6199473;23;20024;-88
2022/05/30 04:24:11;;;;;;;16.00;9.13;;;18.50;96.40;;;;;;6201214;23;20015;-94
2022/05/30 04:26:40;;;;;;;9.63;4.72;;;18.20;96.90;;;;;;6174391;23;20062;-92
2022/05/30 04:29:07;;;;;;;9.00;4.97;;;18.10;97.50;;;;;;6174638;23;20661;-90
2022/05/30 04:31:33;;;;;;;11.98;5.32;;;18.20;96.80;;;;;;6173753;23;20700;-91
2022/05/30 04:34:28;;;;;;;10.50;5.75;;;18.30;96.60;;;;;;6173837;23;20024;-91
2022/05/30 04:47:03;;;;;;;10.48;5.18;;;18.70;95.70;;;;;;6231497;22;20024;-93
2022/05/30 04:59:17;;;;;;;10.48;4.60;;;18.80;95.20;;;;;;6235386;22;20099;-90
2022/05/30 05:06:50;;;;;;;12.57;5.30;;;18.80;95.20;;;;;;6223091;22;20028;-87
2022/05/30 05:09:16;;;;;;;15.82;6.57;;;18.50;96.00;;;;;;6231411;23;20008;-92
2022/05/30 05:11:52;;;;;;;12.20;6.25;;;18.60;96.10;;;;;;6231193;23;20480;-91
2022/05/30 05:14:21;;;;;;;17.55;8.00;;;18.50;96.40;;;;;;6231369;23;20069;-85
2022/05/30 05:16:47;;;;;;;9.27;5.07;;;18.30;96.30;;;;;;6230714;23;20086;-85
2022/05/30 05:19:32;;;;;;;12.68;5.55;;;18.30;96.50;;;;;;6205741;23;20012;-91
2022/05/30 05:22:05;;;;;;;11.00;4.80;;;17.50;96.20;;;;;;6168964;23;20009;-91
2022/05/30 05:24:52;;;;;;;10.95;5.82;;;18.70;95.70;;;;;;6142667;23;20074;-92
2022/05/30 05:27:18;;;;;;;12.38;6.15;;;;;;;;;;6167372;23;20321;-91
2022/05/30 05:30:03;;;;;;;12.52;5.70;;;19.10;94.80;;;;;;6142542;23;20005;-93
2022/05/30 05:33:12;;;;;;;14.40;6.32;;;19.00;95.40;;;;;;6142747;23;20008;-89
2022/05/30 05:39:22;;;;;;;18.10;7.38;;;18.80;95.40;;;;;;6164283;23;20004;-86
2022/05/30 05:45:47;;;;;;;17.92;8.18;;;18.20;97.10;;;;;;6182641;22;20448;-91
2022/05/30 05:51:23;;;;;;;14.15;6.30;;;17.30;99.50;;;;;;6227710;22;20023;-93
2022/05/30 05:54:31;;;;;;;16.10;8.13;;;17.50;98.90;;;;;;6205944;23;20012;-93
2022/05/30 05:57:19;;;;;;;12.05;5.22;;;17.90;98.20;;;;;;6192304;22;20013;-92
2022/05/30 06:00:27;;;;;;;14.88;5.75;;;16.30;96.80;;;;;;6158227;23;20091;-95
2022/05/30 06:06:48;;;;;;;12.95;6.65;;;19.30;96.20;;;;;;6231187;22;20456;-91
2022/05/30 06:09:45;;;;;;;13.80;6.65;;;19.50;96.00;;;;;;6083595;23;20018;-94
2022/05/30 06:15:01;;;;;;;14.70;7.00;;;18.90;95.70;;;;;;6229134;22;20245;-94
2022/05/30 06:19:52;;;;;;;15.30;7.05;;;19.30;95.00;;;;;;6231013;22;20328;-89
2022/05/30 06:28:25;;;;;;;16.83;7.55;;;21.10;94.40;;;;;;6228117;23;20066;-84
2022/05/30 06:34:17;;;;;;;18.27;8.68;;;20.10;93.60;;;;;;6227171;22;20225;-93
2022/05/30 06:36:52;;;;;;;16.00;7.82;;;20.20;93.50;;;;;;6203031;23;20000;-94
2022/05/30 06:39:42;;;;;;;12.55;6.43;;;20.00;93.90;;;;;;6231029;23;20012;-87
2022/05/30 07:40:29;;;;;;;22.95;12.00;;;15.60;99.90;;;;;;6181075;23;20062;-89
2022/05/30 07:43:01;;;;;;;24.02;11.52;;;17.30;99.90;;;;;;6236606;23;20062;-92
2022/05/30 07:45:36;;;;;;;21.83;10.75;;;17.30;99.90;;;;;;6209787;23;20004;-93
2022/05/30 07:48:04;;;;;;;26.27;10.98;;;17.30;99.90;;;;;;6243385;23;20023;-91
2022/05/30 07:50:41;;;;;;;21.00;11.13;;;17.30;99.90;;;;;;6208914;23;20037;-91
2022/05/30 07:53:19;;;;;;;19.08;10.68;;;17.50;99.90;;;;;;6234460;23;20000;-91
2022/05/30 07:55:51;;;;;;;22.48;10.75;;;17.60;99.90;;;;;;6236175;23;20616;-92
2022/05/30 07:58:27;;;;;;;21.45;10.93;;;18.20;99.90;;;;;;6230195;23;20204;-92
2022/05/30 08:00:53;;;;;;;24.02;11.05;;;18.60;98.90;;;;;;6176261;23;20007;-91
2022/05/30 08:03:20;;;;;;;19.48;10.13;;;19.10;98.10;;;;;;6176197;23;20091;-88
2022/05/30 08:05:47;;;;;;;18.05;10.15;;;19.50;98.00;;;;;;6179426;23;20000;-88
2022/05/30 08:08:14;;;;;;;23.52;10.85;;;20.00;97.10;;;;;;6203116;23;20060;-93
2022/05/30 08:10:42;;;;;;;20.70;11.02;;;20.30;96.10;;;;;;6176423;23;20001;-87
2022/05/30 08:13:08;;;;;;;16.20;9.98;;;20.40;95.50;;;;;;6203814;23;20042;-85
2022/05/30 08:15:39;;;;;;;20.23;11.85;;;20.40;95.70;;;;;;6205653;23;20663;-91
2022/05/30 08:18:05;;;;;;;21.08;12.48;;;19.50;95.70;;;;;;6202049;23;20012;-89
2022/05/30 08:20:32;;;;;;;19.00;10.43;;;20.20;95.80;;;;;;6201891;23;19997;-85
2022/05/30 08:22:58;;;;;;;19.42;10.57;;;20.30;95.90;;;;;;6174229;23;20264;-85
2022/05/30 08:25:23;;;;;;;20.98;11.45;;;20.30;95.60;;;;;;6200485;23;20007;-91
2022/05/30 08:27:58;;;;;;;20.38;11.30;;;20.40;95.20;;;;;;6200483;23;20004;-93
2022/05/30 08:30:24;;;;;;;17.85;10.40;;;20.70;95.80;;;;;;6200896;23;20001;-86
2022/05/30 08:32:50;;;;;;;17.95;8.32;;;19.70;96.50;;;;;;6200742;23;20001;-91
2022/05/30 08:35:31;;;;;;;15.93;9.00;;;19.60;96.90;;;;;;6201731;23;20054;-94
2022/05/30 08:38:15;;;;;;;19.83;10.07;;;19.50;97.10;;;;;;6139882;23;20080;-88
2022/05/30 08:43:41;;;;;;;20.60;10.88;;;19.50;97.20;;;;;;6142332;23;19908;-85
2022/05/30 08:52:32;;;;;;;19.92;9.20;;;19.90;96.80;;;;;;6224153;22;20600;-93
2022/05/30 08:55:33;;;;;;;16.38;8.85;;;19.80;96.40;;;;;;6142322;23;20009;-93
2022/05/30 08:58:23;;;;;;;16.45;9.73;;;20.00;96.40;;;;;;6138153;23;20088;-78
2022/05/30 09:01:13;;;;;;;16.40;8.15;;;20.00;96.50;;;;;;6111130;23;20016;-82
2022/05/30 09:04:20;;;;;;;17.55;9.52;;;20.00;96.70;;;;;;6136841;23;20005;-86
2022/05/30 09:07:03;;;;;;;21.60;10.38;;;19.90;96.60;;;;;;6140833;22;19998;-83
2022/05/30 09:09:48;;;;;;;20.67;11.07;;;20.90;97.10;;;;;;6197291;23;20084;-89
2022/05/30 09:12:15;;;;;;;18.95;9.63;;;19.80;96.90;;;;;;6198297;23;20000;-81
2022/05/30 09:14:56;;;;;;;21.15;10.40;;;19.80;96.80;;;;;;6171375;23;20015;-82
2022/05/30 09:17:32;;;;;;;16.23;9.73;;;19.80;96.90;;;;;;6197781;23;20027;-83
2022/05/30 09:20:03;;;;;;;18.60;10.57;;;20.00;96.80;;;;;;6198055;23;20030;-86
2022/05/30 09:22:28;;;;;;;21.25;11.13;;;20.20;96.70;;;;;;6198374;23;20057;-85
2022/05/30 09:27:38;;;;;;;19.48;9.85;;;20.60;95.50;;;;;;6199041;23;20019;-78
2022/05/30 09:30:07;;;;;;;21.45;10.85;;;21.00;95.20;;;;;;6200805;23;20000;-85
2022/05/30 09:33:07;;;;;;;17.02;9.02;;;21.50;94.80;;;;;;6198492;23;20028;-87
2022/05/30 09:35:34;;;;;;;21.60;10.90;;;22.20;93.70;;;;;;6198490;23;19993;-91
2022/05/30 09:38:21;;;;;;;17.33;8.77;;;22.60;92.20;;;;;;6195348;23;20013;-83
2022/05/30 09:40:57;;;;;;;18.30;9.15;;;23.20;91.60;;;;;;6171632;23;20016;-84
2022/05/30 09:43:39;;;;;;;19.27;10.43;;;23.70;91.50;;;;;;6199218;23;20008;-83
2022/05/30 09:46:16;;;;;;;12.45;6.55;;;23.60;90.50;;;;;;6199499;23;20424;-80
2022/05/30 09:49:03;;;;;;;11.13;5.68;;;24.10;87.50;;;;;;6197975;23;20460;-85
2022/05/30 09:51:35;;;;;;;9.52;4.95;;;24.30;86.50;;;;;;6173454;23;20005;-83
2022/05/30 09:54:01;;;;;;;9.82;4.68;;;24.60;84.00;;;;;;6198066;23;20065;-87
2022/05/30 09:56:29;;;;;;;10.35;4.68;;;25.00;81.70;;;;;;6201940;23;20015;-80
2022/05/30 09:59:06;;;;;;;12.73;5.07;;;25.00;80.60;;;;;;6176473;23;20016;-80
2022/05/30 10:01:36;;;;;;;12.70;6.07;;;25.10;81.50;;;;;;6178906;23;20480;-89
2022/05/30 10:04:12;;;;;;;10.68;4.75;;;25.30;81.80;;;;;;6148073;23;20020;-83
2022/05/30 10:07:01;;;;;;;10.82;4.90;;;25.40;79.50;;;;;;6172792;23;20655;-91
2022/05/30 10:09:38;;;;;;;13.15;4.85;;;24.80;79.80;;;;;;6173535;23;20672;-87
2022/05/30 10:12:05;;;;;;;9.52;4.65;;;25.30;81.80;;;;;;6173119;23;20055;-88
2022/05/30 10:14:34;;;;;;;11.52;5.15;;;24.20;81.70;;;;;;6146532;23;20031;-84
2022/05/30 10:17:26;;;;;;;12.75;4.60;;;24.10;83.00;;;;;;6172649;23;20471;-82
2022/05/30 10:19:52;;;;;;;11.75;5.28;;;23.90;83.20;;;;;;6169546;23;20008;-81
2022/05/30 10:28:59;;;;;;;13.80;5.60;;;23.50;86.60;;;;;;6213506;22;20111;-81
2022/05/30 10:31:47;;;;;;;14.52;5.60;;;23.00;88.10;;;;;;6082428;23;20468;-89
2022/05/30 10:34:19;;;;;;;9.63;5.47;;;23.10;89.40;;;;;;6082896;23;20021;-87
2022/05/30 10:37:05;;;;;;;12.82;5.72;;;23.20;89.00;;;;;;6106649;23;20004;-84
2022/05/30 10:39:51;;;;;;;14.18;5.82;;;21.90;87.10;;;;;;6107022;23;20065;-85
2022/05/30 10:42:58;;;;;;;11.82;5.00;;;23.10;87.70;;;;;;6081462;23;20071;-88
2022/05/30 10:47:59;;;;;;;11.57;5.90;;;23.00;88.60;;;;;;6234570;22;20106;-92
2022/05/30 10:51:10;;;;;;;10.38;5.57;;;21.10;87.80;;;;;;6213900;23;20059;-89
2022/05/30 11:02:32;;;;;;;13.63;4.25;;;23.60;86.70;;;;;;6177660;22;20024;-90
2022/05/30 11:05:40;;;;;;;8.38;3.17;;;24.00;83.00;;;;;;6186671;23;20040;-92
2022/05/30 11:30:43;;;;;;;11.25;2.85;;;22.20;91.80;;;;;;6221735;22;20020;-91
2022/05/30 11:33:52;;;;;;;8.57;3.05;;;23.20;94.30;;;;;;6241238;23;20004;-88
2022/05/30 12:11:11;;;;;;;6.55;3.17;;;19.50;99.90;;;;;;6231576;22;20020;-82
2022/05/30 12:14:05;;;;;;;11.80;5.07;;;20.30;99.90;;;;;;6178919;23;20355;-81
2022/05/30 12:16:34;;;;;;;23.23;9.30;;;;;;;;;;6206020;23;20572;-94
2022/05/30 12:25:35;;;;;;;12.20;5.25;;;19.10;99.90;;;;;;5097324;27;20396;-91
2022/05/30 12:28:20;;;;;;;12.30;4.75;;;19.10;99.90;;;;;;5096185;28;20020;-94
2022/05/30 12:30:47;;;;;;;11.90;4.70;;;19.10;99.90;;;;;;5099494;28;20600;-86
2022/05/30 12:33:34;;;;;;;15.38;5.40;;;19.10;99.90;;;;;;5106287;28;20088;-86
2022/05/30 12:36:11;;;;;;;11.02;4.15;;;19.10;99.90;;;;;;5108213;28;20087;-84
2022/05/30 12:39:15;;;;;;;10.85;4.57;;;19.10;99.90;;;;;;5121700;28;20076;-94
2022/05/30 12:42:25;;;;;;;12.32;4.47;;;17.70;99.90;;;;;;5113543;28;20182;-88
2022/05/30 12:45:31;;;;;;;11.13;5.00;;;18.70;99.90;;;;;;5117938;28;20035;-96
2022/05/30 12:48:01;;;;;;;18.05;6.57;;;21.20;99.90;;;;;;5100432;28;20020;-94
2022/05/30 12:50:49;;;;;;;19.63;7.90;;;19.40;99.90;;;;;;5104337;28;20020;-93
2022/05/30 12:53:15;;;;;;;15.50;5.80;;;19.20;99.90;;;;;;5102613;28;20084;-92
2022/05/30 13:15:48;;;;;;;7.88;3.20;;;19.30;99.90;;;;;;4996917;22;20054;-94
2022/05/30 13:18:20;;;;;;;6.30;2.22;;;19.40;99.90;;;;;;4946403;29;20595;-92
2022/05/30 13:21:06;;;;;;;6.30;2.85;;;20.90;99.90;;;;;;4941233;29;20728;-86
2022/05/30 13:23:38;;;;;;;5.38;1.80;;;20.60;99.90;;;;;;4999967;22;20089;-90
2022/05/30 13:26:10;;;;;;;7.22;2.33;;;21.90;97.30;;;;;;4982909;28;20023;-87
2022/05/30 13:29:06;;;;;;;4.80;2.27;;;23.20;97.40;;;;;;4985553;28;20047;-93
2022/05/30 13:34:26;;;;;;;3.72;1.88;;;26.20;91.10;;;;;;4980564;28;20051;-91
2022/05/30 13:36:53;;;;;;;7.60;1.88;;;27.00;82.30;;;;;;4968070;28;20758;-92
2022/05/30 13:42:56;;;;;;;1.80;1.00;;;30.80;79.30;;;;;;4969332;28;20046;-91
2022/05/30 13:45:31;;;;;;;7.78;2.63;;;28.50;70.90;;;;;;4966114;28;20674;-94
2022/05/30 13:48:06;;;;;;;10.15;4.55;;;25.30;76.60;;;;;;4963731;28;20062;-91
2022/05/30 13:50:47;;;;;;;5.80;2.70;;;25.90;80.30;;;;;;4963946;28;20046;-87
2022/05/30 13:53:16;;;;;;;2.10;1.13;;;24.60;76.20;;;;;;4963849;28;20748;-91
2022/05/30 13:56:22;;;;;;;3.33;1.52;;;24.50;74.40;;;;;;4965942;28;20041;-92
2022/05/30 13:58:59;;;;;;;4.40;1.80;;;23.50;74.90;;;;;;4886266;29;20131;-84
2022/05/30 14:01:43;;;;;;;5.95;1.70;;;23.50;75.20;;;;;;4887111;29;20558;-90
2022/05/30 14:04:20;;;;;;;5.78;2.03;;;22.90;80.70;;;;;;4887009;29;20040;-86
2022/05/30 14:06:46;;;;;;;4.28;1.40;;;22.90;81.10;;;;;;4887515;29;20024;-86
2022/05/30 14:09:18;;;;;;;4.93;1.55;;;23.30;79.20;;;;;;4901835;29;20131;-85
2022/05/30 14:11:50;;;;;;;4.35;1.55;;;23.30;79.90;;;;;;4890221;29;20028;-85
2022/05/30 14:14:33;;;;;;;5.90;1.40;;;23.20;78.70;;;;;;4896222;29;20044;-85
2022/05/30 14:17:06;;;;;;;3.97;1.67;;;23.60;78.00;;;;;;4894035;29;20315;-86
2022/05/30 14:19:37;;;;;;;2.97;1.48;;;23.90;77.90;;;;;;4912645;29;20043;-88
2022/05/30 14:22:25;;;;;;;3.50;1.50;;;24.50;77.00;;;;;;4895617;29;20597;-83
2022/05/30 14:24:59;;;;;;;6.45;1.73;;;25.30;74.60;;;;;;4892988;29;20039;-87
2022/05/30 14:27:27;;;;;;;6.15;1.38;;;26.20;70.00;;;;;;4907400;29;20155;-83
2022/05/30 14:30:15;;;;;;;3.60;1.20;;;27.10;66.90;;;;;;4908281;29;20076;-87
2022/05/30 14:33:05;;;;;;;4.65;1.98;;;27.50;65.80;;;;;;4904913;29;20044;-93
2022/05/30 14:35:32;;;;;;;5.63;1.45;;;28.20;64.80;;;;;;4943196;29;20058;-88
2022/05/30 14:37:57;;;;;;;2.58;1.08;;;29.10;62.00;;;;;;4943676;28;20030;-85
2022/05/30 14:40:35;;;;;;;5.57;1.40;;;30.00;56.90;;;;;;4942494;29;20051;-86
2022/05/30 14:43:19;;;;;;;3.33;1.15;;;29.90;57.30;;;;;;4943710;28;20025;-89
2022/05/30 14:45:46;;;;;;;2.92;1.10;;;30.10;57.00;;;;;;4943671;28;20023;-86
2022/05/30 14:48:21;;;;;;;7.55;1.60;;;30.50;57.00;;;;;;4940340;28;20023;-90
2022/05/30 14:51:40;;;;;;;2.88;0.90;;;30.60;56.30;;;;;;4943194;28;20426;-89
2022/05/30 14:54:13;;;;;;;4.30;1.73;;;31.40;55.10;;;;;;4902622;29;20029;-86
2022/05/30 14:56:41;;;;;;;7.43;2.00;;;32.20;52.60;;;;;;4903336;29;20035;-91
2022/05/30 14:59:08;;;;;;;3.20;1.40;;;32.50;50.20;;;;;;4902011;29;20286;-84
2022/05/30 15:01:37;;;;;;;4.07;1.60;;;32.50;51.80;;;;;;4901641;29;20043;-85
2022/05/30 15:04:09;;;;;;;3.25;1.40;;;32.10;50.10;;;;;;4901947;29;20060;-93
2022/05/30 15:06:45;;;;;;;4.05;1.48;;;32.40;50.80;;;;;;4886077;29;20031;-87
2022/05/30 15:09:13;;;;;;;6.43;1.90;;;32.10;50.30;;;;;;4901991;29;20067;-85
2022/05/30 15:11:40;;;;;;;3.70;1.38;;;32.10;50.50;;;;;;4887762;29;20039;-91
2022/05/30 15:14:31;;;;;;;2.65;1.33;;;32.20;50.60;;;;;;4903036;29;20036;-92
2022/05/30 15:16:58;;;;;;;5.00;1.60;;;31.10;50.00;;;;;;4892810;29;20035;-91
2022/05/30 15:19:24;;;;;;;6.65;2.10;;;32.20;49.60;;;;;;4887130;29;20529;-94
2022/05/30 15:22:02;;;;;;;4.45;1.73;;;29.40;48.20;;;;;;4902337;29;20036;-83
2022/05/30 15:24:39;;;;;;;3.08;1.33;;;32.50;49.80;;;;;;4903473;29;20055;-83
2022/05/30 15:27:06;;;;;;;3.67;1.67;;;32.80;49.00;;;;;;4903034;29;20060;-90
2022/05/30 15:29:38;;;;;;;5.65;1.83;;;33.50;48.90;;;;;;4912193;29;20039;-82
2022/05/30 15:32:07;;;;;;;4.30;1.60;;;33.10;48.70;;;;;;4941667;29;20102;-82
2022/05/30 15:34:33;;;;;;;6.20;2.30;;;32.90;48.80;;;;;;4942500;28;20050;-87
2022/05/30 15:37:00;;;;;;;5.93;1.50;;;32.80;49.10;;;;;;4942017;29;20193;-89
2022/05/30 15:39:26;;;;;;;3.58;1.55;;;33.20;49.00;;;;;;4940944;29;20126;-89
2022/05/30 15:42:20;;;;;;;4.10;1.50;;;33.40;48.40;;;;;;4942300;28;20389;-90
2022/05/30 15:44:48;;;;;;;5.60;1.63;;;33.30;48.30;;;;;;4938936;29;20035;-91
2022/05/30 15:47:14;;;;;;;5.95;1.88;;;32.90;48.30;;;;;;4946458;28;20024;-91
2022/05/30 15:50:00;;;;;;;4.55;1.38;;;32.00;49.50;;;;;;4941215;29;20043;-93
2022/05/30 15:58:12;;;;;;;6.70;1.77;;;31.20;51.80;;;;;;4950874;28;20046;-88
2022/05/30 16:00:40;;;;;;;6.78;1.73;;;31.50;51.70;;;;;;4950970;28;20023;-95
2022/05/30 16:03:06;;;;;;;4.30;1.60;;;31.40;51.80;;;;;;4933283;29;20509;-91
2022/05/30 16:05:32;;;;;;;5.45;1.70;;;31.30;52.40;;;;;;4941152;29;20027;-92
2022/05/30 16:08:06;;;;;;;4.35;1.52;;;31.30;52.60;;;;;;4942216;29;20019;-86
2022/05/30 16:10:32;;;;;;;3.28;1.63;;;31.30;51.90;;;;;;4940489;29;20079;-88
2022/05/30 16:13:09;;;;;;;7.43;1.88;;;31.60;52.00;;;;;;4942291;29;20031;-93
2022/05/30 16:15:35;;;;;;;3.28;1.40;;;31.70;52.00;;;;;;4942557;28;20280;-92
2022/05/30 16:18:01;;;;;;;5.50;1.83;;;31.10;52.20;;;;;;4942574;28;20019;-82
2022/05/30 16:20:30;;;;;;;4.20;1.50;;;30.80;52.50;;;;;;4943339;29;20082;-91
2022/05/30 16:22:57;;;;;;;6.22;1.90;;;30.40;53.10;;;;;;4941927;29;20062;-89
2022/05/30 16:25:24;;;;;;;5.50;1.60;;;30.10;53.30;;;;;;4943054;29;20057;-89
2022/05/30 16:27:54;;;;;;;5.15;1.80;;;30.00;54.10;;;;;;4941904;29;20030;-89
2022/05/30 16:30:20;;;;;;;5.75;2.15;;;29.80;54.30;;;;;;4943105;28;20027;-86
2022/05/30 16:32:46;;;;;;;5.20;1.85;;;29.60;54.80;;;;;;4957102;23;20687;-90
2022/05/30 16:35:13;;;;;;;7.38;1.80;;;29.40;55.90;;;;;;4961460;28;20019;-88
2022/05/30 16:37:39;;;;;;;4.50;1.70;;;;;;;;;;4962338;28;20030;-92
2022/05/30 16:40:06;;;;;;;3.92;1.63;;;29.20;54.80;;;;;;4962934;28;20681;-92
2022/05/30 16:42:32;;;;;;;7.15;1.92;;;29.20;55.90;;;;;;4960850;28;20029;-84
2022/05/30 16:44:58;;;;;;;4.70;1.75;;;29.20;56.50;;;;;;4959970;28;20043;-82
2022/05/30 16:49:56;;;;;;;5.97;1.80;;;28.90;56.70;;;;;;4981985;23;20120;-91
2022/05/30 17:24:31;;;;;;;5.07;1.73;;;24.80;67.00;;;;;;5031624;23;20045;-84
2022/05/30 17:29:47;;;;;;;5.78;1.85;;;24.40;69.20;;;;;;4892728;29;20040;-85
2022/05/30 17:32:25;;;;;;;5.30;1.95;;;24.20;71.50;;;;;;4879939;29;20067;-87
2022/05/30 17:35:09;;;;;;;5.82;2.42;;;23.90;72.90;;;;;;4880191;29;20025;-93
2022/05/30 17:37:36;;;;;;;7.50;2.35;;;23.80;75.70;;;;;;4891609;29;20035;-92
2022/05/30 17:40:02;;;;;;;10.02;2.35;;;23.40;77.20;;;;;;4894121;29;20063;-91
2022/05/30 17:42:38;;;;;;;5.13;2.22;;;23.20;78.90;;;;;;4892855;29;20063;-87
2022/05/30 17:45:05;;;;;;;6.72;2.30;;;23.00;80.80;;;;;;4876230;29;20048;-92
2022/05/30 17:48:07;;;;;;;5.25;2.30;;;22.90;83.10;;;;;;4872545;29;20784;-87
2022/05/30 17:50:53;;;;;;;6.70;2.35;;;22.70;84.00;;;;;;4888943;29;20020;-91
2022/05/30 17:53:19;;;;;;;6.10;2.38;;;;;;;;;;4871126;29;20472;-90
2022/05/30 17:56:01;;;;;;;6.78;2.63;;;22.40;87.50;;;;;;4870769;29;20036;-90
2022/05/30 17:58:27;;;;;;;5.72;2.60;;;22.30;90.20;;;;;;4871046;29;20029;-89
2022/05/30 18:00:59;;;;;;;9.82;2.95;;;22.10;91.40;;;;;;4871400;29;20059;-91
2022/05/30 18:03:25;;;;;;;8.85;3.33;;;22.00;91.40;;;;;;4887591;29;20032;-91
2022/05/30 18:05:57;;;;;;;6.50;2.70;;;21.90;92.40;;;;;;4871389;29;20025;-92
2022/05/30 18:08:43;;;;;;;8.90;2.67;;;21.70;92.90;;;;;;4889633;29;20024;-86
2022/05/30 18:11:20;;;;;;;10.02;3.47;;;21.50;93.30;;;;;;4887190;29;20066;-91
2022/05/30 18:14:13;;;;;;;6.60;2.50;;;21.20;93.60;;;;;;4871282;29;20025;-92
2022/05/30 18:19:45;;;;;;;8.98;2.90;;;21.00;94.40;;;;;;4881687;23;20064;-85
2022/05/30 18:22:30;;;;;;;9.75;3.65;;;20.60;95.40;;;;;;4898331;23;20057;-87
2022/05/30 18:25:14;;;;;;;6.25;2.65;;;20.60;95.80;;;;;;4886417;29;20039;-94
2022/05/30 18:27:46;;;;;;;6.00;3.15;;;20.60;95.90;;;;;;4876880;29;20050;-91
2022/05/30 18:30:23;;;;;;;9.38;3.30;;;20.50;95.60;;;;;;4876267;29;20028;-95
2022/05/30 18:33:04;;;;;;;8.00;3.88;;;20.50;95.50;;;;;;4876964;29;20028;-94
2022/05/30 18:35:40;;;;;;;8.38;4.10;;;20.40;96.00;;;;;;4876690;29;20033;-85
2022/05/30 18:38:18;;;;;;;8.20;3.95;;;20.10;96.90;;;;;;4888950;29;20021;-90
2022/05/30 18:40:50;;;;;;;6.60;2.78;;;20.00;96.80;;;;;;4888686;29;20148;-82
2022/05/30 18:43:35;;;;;;;9.82;3.42;;;18.50;96.60;;;;;;4871727;29;20040;-85
2022/05/30 18:46:17;;;;;;;8.02;3.38;;;19.90;97.20;;;;;;4871989;29;20096;-87
2022/05/30 18:49:04;;;;;;;8.93;3.60;;;19.80;97.20;;;;;;4888884;29;20020;-86
2022/05/30 18:51:32;;;;;;;8.80;4.30;;;19.70;97.40;;;;;;4887432;29;20035;-91
2022/05/30 18:53:58;;;;;;;8.35;3.67;;;19.20;98.40;;;;;;4887113;29;20157;-88
2022/05/30 18:56:37;;;;;;;10.18;3.88;;;19.50;98.40;;;;;;4870681;29;20131;-81
2022/05/30 18:59:27;;;;;;;8.77;3.67;;;19.40;97.70;;;;;;4869165;29;20032;-86
2022/05/30 19:01:55;;;;;;;11.57;4.15;;;19.40;97.40;;;;;;4869179;29;20227;-92
2022/05/30 19:04:21;;;;;;;11.65;3.85;;;19.20;98.00;;;;;;4886255;29;20036;-91
2022/05/30 19:06:48;;;;;;;10.77;3.58;;;20.80;98.40;;;;;;4886638;29;20076;-89
2022/05/30 19:09:16;;;;;;;7.70;3.70;;;19.10;97.60;;;;;;4889812;23;20060;-91
2022/05/30 19:12:18;;;;;;;11.38;2.85;;;19.00;98.10;;;;;;4869279;29;20726;-91
2022/05/30 19:14:49;;;;;;;6.78;3.40;;;20.00;98.20;;;;;;4857901;29;20548;-90
2022/05/30 19:17:32;;;;;;;8.10;3.30;;;18.90;98.00;;;;;;4854129;29;20080;-94
2022/05/30 19:20:32;;;;;;;7.57;2.78;;;19.50;98.20;;;;;;4868311;29;20033;-94
2022/05/30 19:22:58;;;;;;;9.98;3.08;;;18.90;98.20;;;;;;4850882;29;20695;-95
2022/05/30 19:25:29;;;;;;;6.22;2.78;;;18.70;98.60;;;;;;4869127;29;20037;-95
2022/05/30 19:28:08;;;;;;;6.82;3.17;;;18.60;98.90;;;;;;4852650;29;20024;-94
2022/05/30 19:30:39;;;;;;;7.78;3.42;;;18.60;99.00;;;;;;4868832;29;20180;-92
2022/05/30 19:33:05;;;;;;;7.32;3.17;;;18.80;99.00;;;;;;4854924;29;20025;-93